createdAt,value
2023-02-25T00:01:33.476Z,3.23
2023-02-25T00:03:47.548Z,3.16
2023-02-25T00:06:00.356Z,3.11
2023-02-25T00:08:14.949Z,3.06
2023-02-25T00:10:27.833Z,3.01
2023-02-25T00:12:41.084Z,2.95
2023-02-25T00:14:53.840Z,2.89
2023-02-25T00:17:08.134Z,2.81
2023-02-25T00:19:20.917Z,2.75
2023-02-25T00:21:33.757Z,2.72
2023-02-25T00:23:47.343Z,2.69
2023-02-25T00:26:08.143Z,2.59
2023-02-25T00:28:21.328Z,2.49
2023-02-25T00:30:50.521Z,2.43
2023-02-25T00:33:06.574Z,2.37
2023-02-25T00:35:21.206Z,2.29
2023-02-25T00:37:35.504Z,2.20
2023-02-25T00:39:48.924Z,2.10
2023-02-25T00:42:03.109Z,1.99
2023-02-25T00:44:16.845Z,1.90
2023-02-25T00:46:32.330Z,1.84
2023-02-25T00:48:47.689Z,1.77
2023-02-25T00:51:01.608Z,1.70
2023-02-25T00:53:14.445Z,1.60
2023-02-25T00:55:34.409Z,1.51
2023-02-25T00:57:47.221Z,1.47
2023-02-25T01:00:00.071Z,1.40
2023-02-25T01:02:12.865Z,1.34
2023-02-25T01:04:27.256Z,1.31
2023-02-25T01:06:42.409Z,1.28
2023-02-25T01:08:57.646Z,1.20
2023-02-25T01:11:21.980Z,1.11
2023-02-25T01:13:34.972Z,1.06
2023-02-25T01:15:48.986Z,1.01
2023-02-25T01:18:03.179Z,0.95
2023-02-25T01:20:21.055Z,0.94
2023-02-25T01:22:35.062Z,0.91
2023-02-25T01:24:48.527Z,0.88
2023-02-25T01:27:03.812Z,0.84
2023-02-25T01:29:20.258Z,0.79
2023-02-25T01:31:34.670Z,0.76
2023-02-25T01:33:49.842Z,0.74
2023-02-25T01:36:07.863Z,0.73
2023-02-25T01:38:22.077Z,0.72
2023-02-25T01:40:36.196Z,0.70
2023-02-25T01:42:50.578Z,0.66
2023-02-25T01:45:34.631Z,0.61
2023-02-25T01:47:48.807Z,0.55
2023-02-25T01:50:03.770Z,0.50
2023-02-25T01:52:19.509Z,0.46
2023-02-25T01:54:34.188Z,0.45
2023-02-25T01:56:51.918Z,0.42
2023-02-25T01:59:06.122Z,0.39
2023-02-25T02:01:22.657Z,0.36
2023-02-25T02:03:38.177Z,0.33
2023-02-25T02:06:10.828Z,0.29
2023-02-25T02:08:27.371Z,0.25
2023-02-25T02:10:40.781Z,0.19
2023-02-25T02:12:55.117Z,0.16
2023-02-25T02:15:12.241Z,0.14
2023-02-25T02:17:30.621Z,0.12
2023-02-25T02:20:14.170Z,0.10
2023-02-25T02:22:38.365Z,0.06
2023-02-25T02:25:20.666Z,0.01
2023-02-25T02:27:33.497Z,-0.02
2023-02-25T02:30:16.854Z,-0.07
2023-02-25T02:32:39.755Z,-0.08
2023-02-25T02:35:06.235Z,-0.10
2023-02-25T02:37:39.494Z,-0.10
2023-02-25T02:40:03.130Z,-0.10
2023-02-25T02:42:28.566Z,-0.10
2023-02-25T02:44:51.691Z,-0.11
2023-02-25T02:47:08.059Z,-0.13
2023-02-25T02:49:27.923Z,-0.15
2023-02-25T02:51:48.182Z,-0.18
2023-02-25T02:54:07.269Z,-0.18
2023-02-25T02:56:24.538Z,-0.18
2023-02-25T02:58:41.668Z,-0.19
2023-02-25T03:01:01.305Z,-0.20
2023-02-25T03:03:17.925Z,-0.21
2023-02-25T03:05:35.561Z,-0.22
2023-02-25T03:07:55.760Z,-0.23
2023-02-25T03:10:10.947Z,-0.24
2023-02-25T03:12:23.904Z,-0.24
2023-02-25T03:14:36.954Z,-0.25
2023-02-25T03:16:56.396Z,-0.30
2023-02-25T03:19:15.320Z,-0.33
2023-02-25T03:21:33.917Z,-0.36
2023-02-25T03:23:49.455Z,-0.38
2023-02-25T03:26:11.861Z,-0.40
2023-02-25T03:28:32.768Z,-0.43
2023-02-25T03:30:48.146Z,-0.47
2023-02-25T03:33:05.215Z,-0.50
2023-02-25T03:35:21.233Z,-0.51
2023-02-25T03:37:39.969Z,-0.53
2023-02-25T03:39:56.684Z,-0.54
2023-02-25T03:42:14.033Z,-0.56
2023-02-25T03:44:33.102Z,-0.56
2023-02-25T03:46:49.767Z,-0.57
2023-02-25T03:49:05.297Z,-0.59
2023-02-25T03:51:22.293Z,-0.60
2023-02-25T03:53:38.016Z,-0.62
2023-02-25T03:56:06.507Z,-0.64
2023-02-25T03:58:20.716Z,-0.64
2023-02-25T04:00:37.123Z,-0.63
2023-02-25T04:02:52.317Z,-0.63
2023-02-25T04:05:05.450Z,-0.60
2023-02-25T04:07:18.437Z,-0.60
2023-02-25T04:09:31.113Z,-0.62
2023-02-25T04:11:45.158Z,-0.65
2023-02-25T04:13:58.200Z,-0.68
2023-02-25T04:16:12.700Z,-0.71
2023-02-25T04:18:25.881Z,-0.75
2023-02-25T04:20:40.792Z,-0.78
2023-02-25T04:22:55.443Z,-0.81
2023-02-25T04:25:11.806Z,-0.84
2023-02-25T04:27:27.501Z,-0.87
2023-02-25T04:29:40.562Z,-0.88
2023-02-25T04:31:53.663Z,-0.88
2023-02-25T04:34:06.625Z,-0.88
2023-02-25T04:36:32.016Z,-0.88
2023-02-25T04:38:45.812Z,-0.87
2023-02-25T04:40:59.441Z,-0.86
2023-02-25T04:43:13.184Z,-0.85
2023-02-25T04:45:27.409Z,-0.82
2023-02-25T04:47:41.498Z,-0.79
2023-02-25T04:49:54.457Z,-0.76
2023-02-25T04:52:07.609Z,-0.75
2023-02-25T04:54:21.619Z,-0.73
2023-02-25T04:56:35.277Z,-0.72
2023-02-25T04:58:50.148Z,-0.71
2023-02-25T05:01:05.164Z,-0.72
2023-02-25T05:03:19.073Z,-0.72
2023-02-25T05:05:32.059Z,-0.73
2023-02-25T05:07:49.721Z,-0.74
2023-02-25T05:10:03.434Z,-0.74
2023-02-25T05:12:18.715Z,-0.75
2023-02-25T05:14:33.002Z,-0.77
2023-02-25T05:16:49.066Z,-0.80
2023-02-25T05:19:01.838Z,-0.82
2023-02-25T05:21:17.913Z,-0.85
2023-02-25T05:23:31.950Z,-0.86
2023-02-25T05:25:45.288Z,-0.87
2023-02-25T05:27:59.502Z,-0.90
2023-02-25T05:30:16.452Z,-0.90
2023-02-25T05:32:30.663Z,-0.91
2023-02-25T05:34:45.791Z,-0.94
2023-02-25T05:37:00.538Z,-0.97
2023-02-25T05:39:16.902Z,-1.00
2023-02-25T05:41:33.814Z,-1.03
2023-02-25T05:43:49.113Z,-1.04
2023-02-25T05:46:04.597Z,-1.06
2023-02-25T05:48:18.811Z,-1.07
2023-02-25T05:50:32.914Z,-1.08
2023-02-25T05:52:46.236Z,-1.09
2023-02-25T05:54:59.621Z,-1.09
2023-02-25T05:57:12.989Z,-1.08
2023-02-25T05:59:26.710Z,-1.08
2023-02-25T06:01:39.738Z,-1.08
2023-02-25T06:03:54.730Z,-1.09
2023-02-25T06:06:09.015Z,-1.12
2023-02-25T06:08:22.520Z,-1.14
2023-02-25T06:10:39.480Z,-1.17
2023-02-25T06:12:53.066Z,-1.20
2023-02-25T06:15:07.637Z,-1.21
2023-02-25T06:17:20.877Z,-1.22
2023-02-25T06:19:34.101Z,-1.22
2023-02-25T06:21:48.586Z,-1.22
2023-02-25T06:24:01.592Z,-1.24
2023-02-25T06:26:17.373Z,-1.23
2023-02-25T06:28:31.825Z,-1.24
2023-02-25T06:30:47.699Z,-1.24
2023-02-25T06:33:01.904Z,-1.29
2023-02-25T06:35:17.169Z,-1.26
2023-02-25T06:37:30.317Z,-1.27
2023-02-25T06:39:45.086Z,-1.27
2023-02-25T06:41:57.905Z,-1.28
2023-02-25T06:44:10.773Z,-1.28
2023-02-25T06:46:26.843Z,-1.29
2023-02-25T06:48:39.994Z,-1.29
2023-02-25T06:50:54.567Z,-1.31
2023-02-25T06:53:07.630Z,-1.33
2023-02-25T06:55:21.281Z,-1.35
2023-02-25T06:57:35.187Z,-1.37
2023-02-25T06:59:48.508Z,-1.40
2023-02-25T07:02:02.409Z,-1.43
2023-02-25T07:04:18.484Z,-1.46
2023-02-25T07:06:31.591Z,-1.51
2023-02-25T07:08:45.987Z,-1.54
2023-02-25T07:10:59.915Z,-1.59
2023-02-25T07:13:14.351Z,-1.59
2023-02-25T07:15:30.848Z,-1.60
2023-02-25T07:17:45.351Z,-1.60
2023-02-25T07:19:59.493Z,-1.60
2023-02-25T07:22:15.915Z,-1.61
2023-02-25T07:24:30.470Z,-1.64
2023-02-25T07:26:44.291Z,-1.66
2023-02-25T07:28:57.991Z,-1.69
2023-02-25T07:31:16.536Z,-1.72
2023-02-25T07:33:31.031Z,-1.74
2023-02-25T07:35:44.576Z,-1.77
2023-02-25T07:37:57.772Z,-1.79
2023-02-25T07:40:14.058Z,-1.80
2023-02-25T07:42:27.954Z,-1.83
2023-02-25T07:44:46.232Z,-1.86
2023-02-25T07:46:58.961Z,-1.90
2023-02-25T07:49:13.183Z,-1.92
2023-02-25T07:51:28.921Z,-1.98
2023-02-25T07:53:43.335Z,-2.02
2023-02-25T07:55:57.030Z,-2.06
2023-02-25T07:58:10.230Z,-2.08
2023-02-25T08:00:25.254Z,-2.08
2023-02-25T08:02:39.529Z,-2.09
2023-02-25T08:04:55.096Z,-2.10
2023-02-25T08:07:08.650Z,-2.10
2023-02-25T08:09:22.170Z,-2.11
2023-02-25T08:11:35.983Z,-2.11
2023-02-25T08:13:49.974Z,-2.13
2023-02-25T08:16:07.058Z,-2.15
2023-02-25T08:18:20.111Z,-2.15
2023-02-25T08:20:33.613Z,-2.17
2023-02-25T08:22:46.688Z,-2.18
2023-02-25T08:25:00.172Z,-2.18
2023-02-25T08:27:14.475Z,-2.18
2023-02-25T08:29:27.683Z,-2.16
2023-02-25T08:31:40.732Z,-2.17
2023-02-25T08:33:56.061Z,-2.19
2023-02-25T08:36:17.389Z,-2.19
2023-02-25T08:38:31.291Z,-2.22
2023-02-25T08:40:44.736Z,-2.23
2023-02-25T08:42:59.129Z,-2.25
2023-02-25T08:45:14.131Z,-2.29
2023-02-25T08:47:27.738Z,-2.33
2023-02-25T08:49:41.301Z,-2.37
2023-02-25T08:51:56.719Z,-2.41
2023-02-25T08:54:14.826Z,-2.45
2023-02-25T08:56:29.670Z,-2.48
2023-02-25T08:58:44.138Z,-2.50
2023-02-25T09:00:58.434Z,-2.53
2023-02-25T09:03:11.399Z,-2.56
2023-02-25T09:05:25.961Z,-2.60
2023-02-25T09:07:38.922Z,-2.63
2023-02-25T09:09:51.957Z,-2.66
2023-02-25T09:12:06.703Z,-2.66
2023-02-25T09:14:20.878Z,-2.67
2023-02-25T09:16:37.395Z,-2.67
2023-02-25T09:18:51.264Z,-2.67
2023-02-25T09:21:05.423Z,-2.68
2023-02-25T09:23:19.593Z,-2.70
2023-02-25T09:25:33.752Z,-2.74
2023-02-25T09:27:48.954Z,-2.76
2023-02-25T09:30:02.046Z,-2.78
2023-02-25T09:32:20.964Z,-2.81
2023-02-25T09:34:36.254Z,-2.82
2023-02-25T09:36:50.392Z,-2.84
2023-02-25T09:39:03.652Z,-2.85
2023-02-25T09:41:28.706Z,-2.86
2023-02-25T09:43:45.869Z,-2.86
2023-02-25T09:46:04.377Z,-2.87
2023-02-25T09:48:26.091Z,-2.89
2023-02-25T09:50:44.453Z,-2.90
2023-02-25T09:53:08.724Z,-2.92
2023-02-25T09:55:26.057Z,-2.93
2023-02-25T09:57:42.929Z,-2.96
2023-02-25T09:59:57.320Z,-2.99
2023-02-25T10:02:30.395Z,-3.01
2023-02-25T10:04:51.622Z,-3.01
2023-02-25T10:07:11.428Z,-3.02
2023-02-25T10:09:43.916Z,-3.06
2023-02-25T10:12:04.067Z,-3.13
2023-02-25T10:14:41.045Z,-3.17
2023-02-25T10:17:03.249Z,-3.22
2023-02-25T10:19:25.768Z,-3.29
2023-02-25T10:21:44.667Z,-3.35
2023-02-25T10:24:16.067Z,-3.38
2023-02-25T10:26:33.849Z,-3.42
2023-02-25T10:28:51.084Z,-3.45
2023-02-25T10:31:09.138Z,-3.47
2023-02-25T10:33:26.204Z,-3.49
2023-02-25T10:35:42.962Z,-3.51
2023-02-25T10:37:56.038Z,-3.52
2023-02-25T10:40:16.960Z,-3.55
2023-02-25T10:42:31.283Z,-3.57
2023-02-25T10:44:45.733Z,-3.61
2023-02-25T10:47:02.485Z,-3.64
2023-02-25T10:49:26.563Z,-3.67
2023-02-25T10:51:39.329Z,-3.70
2023-02-25T10:54:08.056Z,-3.73
2023-02-25T10:56:20.682Z,-3.76
2023-02-25T10:58:39.083Z,-3.76
2023-02-25T11:01:02.436Z,-3.77
2023-02-25T11:03:28.919Z,-3.79
2023-02-25T11:05:45.946Z,-3.81
2023-02-25T11:07:58.750Z,-3.82
2023-02-25T11:10:22.493Z,-3.85
2023-02-25T11:12:42.837Z,-3.87
2023-02-25T11:14:57.200Z,-3.88
2023-02-25T11:17:21.401Z,-3.90
2023-02-25T11:19:38.763Z,-3.93
2023-02-25T11:21:53.208Z,-3.96
2023-02-25T11:24:12.364Z,-4.01
2023-02-25T11:26:36.491Z,-4.03
2023-02-25T11:28:51.587Z,-4.05
2023-02-25T11:31:15.788Z,-4.06
2023-02-25T11:33:35.415Z,-4.06
2023-02-25T11:35:49.112Z,-4.07
2023-02-25T11:38:15.543Z,-4.08
2023-02-25T11:40:31.753Z,-4.10
2023-02-25T11:42:46.809Z,-4.12
2023-02-25T11:45:05.425Z,-4.15
2023-02-25T11:47:29.565Z,-4.19
2023-02-25T11:50:08.116Z,-4.21
2023-02-25T11:52:28.605Z,-4.25
2023-02-25T11:54:53.237Z,-4.28
2023-02-25T11:57:15.874Z,-4.30
2023-02-25T11:59:40.284Z,-4.32
2023-02-25T12:02:35.503Z,-4.35
2023-02-25T12:05:21.496Z,-4.38
2023-02-25T12:08:12.934Z,-4.41
2023-02-25T12:10:43.198Z,-4.44
2023-02-25T12:13:28.202Z,-4.46
2023-02-25T12:16:17.626Z,-4.48
2023-02-25T12:19:09.274Z,-4.50
2023-02-25T12:21:50.971Z,-4.52
2023-02-25T12:24:37.995Z,-4.55
2023-02-25T12:27:21.684Z,-4.57
2023-02-25T12:30:00.821Z,-4.60
2023-02-25T12:32:33.981Z,-4.58
2023-02-25T12:35:24.139Z,-4.56
2023-02-25T12:38:11.192Z,-4.51
2023-02-25T12:40:55.715Z,-4.48
2023-02-25T12:43:26.192Z,-4.47
2023-02-25T12:46:16.464Z,-4.46
2023-02-25T12:49:22.990Z,-4.46
2023-02-25T12:52:02.124Z,-4.46
2023-02-25T12:54:35.396Z,-4.45
2023-02-25T12:57:12.012Z,-4.43
2023-02-25T13:00:10.468Z,-4.41
2023-02-25T13:02:57.005Z,-4.38
2023-02-25T13:05:38.414Z,-4.36
2023-02-25T13:08:29.703Z,-4.35
2023-02-25T13:11:03.726Z,-4.35
2023-02-25T13:13:47.514Z,-4.34
2023-02-25T13:16:16.518Z,-4.33
2023-02-25T13:18:39.245Z,-4.32
2023-02-25T13:21:10.681Z,-4.31
2023-02-25T13:23:35.076Z,-4.32
2023-02-25T13:26:05.937Z,-4.33
2023-02-25T13:28:35.857Z,-4.37
2023-02-25T13:30:59.171Z,-4.39
2023-02-25T13:33:41.175Z,-4.42
2023-02-25T13:36:01.385Z,-4.46
2023-02-25T13:38:27.186Z,-4.51
2023-02-25T13:41:08.480Z,-4.57
2023-02-25T13:43:46.305Z,-4.65
2023-02-25T13:46:29.605Z,-4.71
2023-02-25T13:49:07.258Z,-4.77
2023-02-25T13:51:43.066Z,-4.84
2023-02-25T13:54:18.018Z,-4.90
2023-02-25T13:56:48.589Z,-4.93
2023-02-25T13:59:13.554Z,-4.97
2023-02-25T14:02:00.225Z,-5.01
2023-02-25T14:04:42.948Z,-5.04
2023-02-25T14:07:25.660Z,-5.08
2023-02-25T14:09:49.360Z,-5.09
2023-02-25T14:12:12.832Z,-5.10
2023-02-25T14:14:48.235Z,-5.12
2023-02-25T14:17:28.034Z,-5.14
2023-02-25T14:19:51.765Z,-5.18
2023-02-25T14:22:26.796Z,-5.22
2023-02-25T14:24:49.213Z,-5.25
2023-02-25T14:27:16.414Z,-5.26
2023-02-25T14:29:41.358Z,-5.23
2023-02-25T14:32:07.294Z,-5.23
2023-02-25T14:34:41.622Z,-5.22
2023-02-25T14:37:08.019Z,-5.22
2023-02-25T14:39:33.905Z,-5.21
2023-02-25T14:41:59.959Z,-5.23
2023-02-25T14:44:20.062Z,-5.22
2023-02-25T14:46:41.597Z,-5.24
2023-02-25T14:49:04.043Z,-5.25
2023-02-25T14:51:49.193Z,-5.26
2023-02-25T14:54:36.446Z,-5.29
2023-02-25T14:56:55.121Z,-5.31
2023-02-25T14:59:43.545Z,-5.34
2023-02-25T15:02:26.022Z,-5.36
2023-02-25T15:04:59.613Z,-5.37
2023-02-25T15:07:27.650Z,-5.37
2023-02-25T15:10:12.509Z,-5.37
2023-02-25T15:12:46.693Z,-5.36
2023-02-25T15:15:31.588Z,-5.36
2023-02-25T15:18:22.846Z,-5.36
2023-02-25T15:20:42.405Z,-5.33
2023-02-25T15:23:11.295Z,-5.28
2023-02-25T15:25:49.563Z,-5.23
2023-02-25T15:28:04.083Z,-5.17
2023-02-25T15:30:20.209Z,-5.12
2023-02-25T15:32:49.368Z,-5.08
2023-02-25T15:35:05.956Z,-5.01
2023-02-25T15:37:39.887Z,-4.95
2023-02-25T15:39:58.666Z,-4.85
2023-02-25T15:42:16.467Z,-4.63
2023-02-25T15:44:46.535Z,-4.28
2023-02-25T15:47:30.319Z,-3.89
2023-02-25T15:49:48.947Z,-3.30
2023-02-25T15:52:04.855Z,-2.76
2023-02-25T15:54:55.638Z,-2.21
2023-02-25T15:57:29.402Z,-1.54
2023-02-25T15:59:53.816Z,-1.00
2023-02-25T16:02:06.788Z,-0.53
2023-02-25T16:04:54.572Z,-0.14
2023-02-25T16:07:15.565Z,0.32
2023-02-25T16:09:30.867Z,0.70
2023-02-25T16:11:46.075Z,1.02
2023-02-25T16:13:59.376Z,1.36
2023-02-25T16:16:17.618Z,1.66
2023-02-25T16:18:35.776Z,1.94
2023-02-25T16:20:53.298Z,2.21
2023-02-25T16:23:12.888Z,2.42
2023-02-25T16:25:32.357Z,2.64
2023-02-25T16:27:56.369Z,2.90
2023-02-25T16:30:19.496Z,3.19
2023-02-25T16:32:47.927Z,3.41
2023-02-25T16:35:06.560Z,3.62
2023-02-25T16:37:28.148Z,3.85
2023-02-25T16:39:42.362Z,4.05
2023-02-25T16:41:56.627Z,4.27
2023-02-25T16:44:09.920Z,4.48
2023-02-25T16:46:27.000Z,4.67
2023-02-25T16:48:51.435Z,4.90
2023-02-25T16:51:13.781Z,5.16
2023-02-25T16:53:25.773Z,5.41
2023-02-25T16:55:44.815Z,5.63
2023-02-25T16:58:24.316Z,5.85
2023-02-25T17:00:39.317Z,6.05
2023-02-25T17:02:54.658Z,6.26
2023-02-25T17:05:07.305Z,6.47
2023-02-25T17:07:23.520Z,6.69
2023-02-25T17:09:36.356Z,6.87
2023-02-25T17:11:53.255Z,7.03
2023-02-25T17:14:08.613Z,7.21
2023-02-25T17:16:26.058Z,7.35
2023-02-25T17:18:45.291Z,7.49
2023-02-25T17:21:07.250Z,7.57
2023-02-25T17:23:21.754Z,7.60
2023-02-25T17:25:39.487Z,7.63
2023-02-25T17:27:55.108Z,7.70
2023-02-25T17:30:08.297Z,7.77
2023-02-25T17:32:26.855Z,7.78
2023-02-25T17:34:40.711Z,7.90
2023-02-25T17:36:55.639Z,8.01
2023-02-25T17:39:10.409Z,8.15
2023-02-25T17:41:25.407Z,8.25
2023-02-25T17:43:45.180Z,8.40
2023-02-25T17:46:02.249Z,8.57
2023-02-25T17:48:22.007Z,8.74
2023-02-25T17:50:37.187Z,8.81
2023-02-25T17:52:54.488Z,8.91
2023-02-25T17:55:10.726Z,8.99
2023-02-25T17:57:26.315Z,8.87
2023-02-25T17:59:44.392Z,8.65
2023-02-25T18:02:01.596Z,8.57
2023-02-25T18:04:24.535Z,8.60
2023-02-25T18:06:45.881Z,8.63
2023-02-25T18:09:00.373Z,8.65
2023-02-25T18:11:28.349Z,8.66
2023-02-25T18:13:43.655Z,8.74
2023-02-25T18:16:35.293Z,8.81
2023-02-25T18:18:52.830Z,8.73
2023-02-25T18:21:05.855Z,8.64
2023-02-25T18:23:28.756Z,8.57
2023-02-25T18:25:43.319Z,8.74
2023-02-25T18:27:59.067Z,8.93
2023-02-25T18:30:31.382Z,9.00
2023-02-25T18:32:41.969Z,8.99
2023-02-25T18:34:57.193Z,9.07
2023-02-25T18:37:10.855Z,9.10
2023-02-25T18:39:25.482Z,9.16
2023-02-25T18:41:39.398Z,9.33
2023-02-25T18:43:55.632Z,9.53
2023-02-25T18:46:09.597Z,9.65
2023-02-25T18:48:22.160Z,9.80
2023-02-25T18:50:38.560Z,9.95
2023-02-25T18:52:52.746Z,10.06
2023-02-25T18:55:05.561Z,10.17
2023-02-25T18:57:25.387Z,10.24
2023-02-25T18:59:39.165Z,10.33
2023-02-25T19:01:52.107Z,10.42
2023-02-25T19:04:07.146Z,10.57
2023-02-25T19:06:20.717Z,10.75
2023-02-25T19:08:34.502Z,10.90
2023-02-25T19:10:48.845Z,11.05
2023-02-25T19:13:08.013Z,11.14
2023-02-25T19:15:25.822Z,11.13
2023-02-25T19:17:39.424Z,11.09
2023-02-25T19:19:53.211Z,11.04
2023-02-25T19:22:05.818Z,11.08
2023-02-25T19:24:20.157Z,11.14
2023-02-25T19:26:34.316Z,11.28
2023-02-25T19:28:47.147Z,11.39
2023-02-25T19:31:01.181Z,11.33
2023-02-25T19:33:14.714Z,11.30
2023-02-25T19:35:27.855Z,11.28
2023-02-25T19:37:42.249Z,11.32
2023-02-25T19:39:55.018Z,11.38
2023-02-25T19:42:07.592Z,11.45
2023-02-25T19:44:20.308Z,11.44
2023-02-25T19:46:33.448Z,11.43
2023-02-25T19:48:46.080Z,11.33
2023-02-25T19:50:58.773Z,11.19
2023-02-25T19:53:11.734Z,11.22
2023-02-25T19:55:25.683Z,11.28
2023-02-25T19:57:40.253Z,11.44
2023-02-25T19:59:52.978Z,11.63
2023-02-25T20:02:09.622Z,11.81
2023-02-25T20:04:22.372Z,11.97
2023-02-25T20:06:35.894Z,12.05
2023-02-25T20:08:53.644Z,11.98
2023-02-25T20:11:06.502Z,11.89
2023-02-25T20:13:19.064Z,11.75
2023-02-25T20:15:33.873Z,11.65
2023-02-25T20:17:50.161Z,11.44
2023-02-25T20:20:03.896Z,11.24
2023-02-25T20:22:16.956Z,11.19
2023-02-25T20:24:30.823Z,11.22
2023-02-25T20:26:46.333Z,11.24
2023-02-25T20:29:00.567Z,11.22
2023-02-25T20:31:15.211Z,11.25
2023-02-25T20:33:29.313Z,11.30
2023-02-25T20:35:42.511Z,11.34
2023-02-25T20:38:17.153Z,11.24
2023-02-25T20:40:30.547Z,11.10
2023-02-25T20:42:44.666Z,11.03
2023-02-25T20:44:59.615Z,11.01
2023-02-25T20:47:16.487Z,11.08
2023-02-25T20:49:31.601Z,11.14
2023-02-25T20:51:46.173Z,11.14
2023-02-25T20:54:00.436Z,11.07
2023-02-25T20:56:17.344Z,11.04
2023-02-25T20:58:30.347Z,11.04
2023-02-25T21:00:44.436Z,10.98
2023-02-25T21:02:57.297Z,10.94
2023-02-25T21:05:11.245Z,10.90
2023-02-25T21:07:23.878Z,10.94
2023-02-25T21:09:37.235Z,10.92
2023-02-25T21:11:49.973Z,10.92
2023-02-25T21:14:02.912Z,10.88
2023-02-25T21:16:16.438Z,10.69
2023-02-25T21:18:29.378Z,10.60
2023-02-25T21:20:42.043Z,10.56
2023-02-25T21:22:55.466Z,10.54
2023-02-25T21:25:08.718Z,10.57
2023-02-25T21:27:21.700Z,10.64
2023-02-25T21:29:36.608Z,10.66
2023-02-25T21:31:50.002Z,10.66
2023-02-25T21:34:04.907Z,10.72
2023-02-25T21:36:18.823Z,10.74
2023-02-25T21:38:32.320Z,10.73
2023-02-25T21:40:45.522Z,10.71
2023-02-25T21:42:59.091Z,10.75
2023-02-25T21:45:14.128Z,10.86
2023-02-25T21:47:28.005Z,10.83
2023-02-25T21:49:41.737Z,10.71
2023-02-25T21:51:56.112Z,10.68
2023-02-25T21:54:10.241Z,10.64
2023-02-25T21:56:24.791Z,10.59
2023-02-25T21:58:38.942Z,10.51
2023-02-25T22:00:53.152Z,10.39
2023-02-25T22:03:07.125Z,10.35
2023-02-25T22:05:21.334Z,10.31
2023-02-25T22:07:35.907Z,10.25
2023-02-25T22:09:50.597Z,10.21
2023-02-25T22:12:03.425Z,10.19
2023-02-25T22:14:18.354Z,10.18
2023-02-25T22:16:32.426Z,10.20
2023-02-25T22:18:46.047Z,10.23
2023-02-25T22:21:05.846Z,10.21
2023-02-25T22:23:18.410Z,10.20
2023-02-25T22:25:31.589Z,10.20
2023-02-25T22:27:45.319Z,10.21
2023-02-25T22:29:58.352Z,10.18
2023-02-25T22:32:12.445Z,10.15
2023-02-25T22:34:25.497Z,10.17
2023-02-25T22:36:38.445Z,10.17
2023-02-25T22:38:53.093Z,10.19
2023-02-25T22:41:06.133Z,10.22
2023-02-25T22:43:18.902Z,10.31
2023-02-25T22:45:32.599Z,10.36
2023-02-25T22:47:45.767Z,10.43
2023-02-25T22:49:58.864Z,10.49
2023-02-25T22:52:13.243Z,10.53
2023-02-25T22:54:26.209Z,10.56
2023-02-25T22:56:41.941Z,10.59
2023-02-25T22:58:55.639Z,10.61
2023-02-25T23:01:09.352Z,10.65
2023-02-25T23:03:22.455Z,10.67
2023-02-25T23:05:36.578Z,10.71
2023-02-25T23:07:51.333Z,10.77
2023-02-25T23:10:04.726Z,10.75
2023-02-25T23:12:17.972Z,10.66
2023-02-25T23:14:30.917Z,10.56
2023-02-25T23:16:46.002Z,10.42
2023-02-25T23:18:59.896Z,10.27
2023-02-25T23:21:17.227Z,10.18
2023-02-25T23:23:39.334Z,10.08
2023-02-25T23:25:55.937Z,9.99
2023-02-25T23:28:10.681Z,9.93
2023-02-25T23:30:24.266Z,9.82
2023-02-25T23:32:38.587Z,9.72
2023-02-25T23:34:51.826Z,9.67
2023-02-25T23:37:06.063Z,9.65
2023-02-25T23:39:20.180Z,9.63
2023-02-25T23:41:34.748Z,9.51
2023-02-25T23:43:48.721Z,9.42
2023-02-25T23:46:05.079Z,9.41
2023-02-25T23:48:18.136Z,9.37
2023-02-25T23:50:31.411Z,9.31
2023-02-25T23:52:44.724Z,9.24
2023-02-25T23:55:00.735Z,9.22
2023-02-25T23:57:14.146Z,9.23
2023-02-25T23:59:27.864Z,9.23
